sensor_id;sensor_type;location;lat;lon;timestamp;pressure;altitude;pressure_sealevel;temperature;humidity
12791;BME280;6459;42.678;23.310;2022-08-01T00:00:10;53945.78;;;-144.00;49.26
12791;BME280;6459;42.678;23.310;2022-08-01T00:02:41;53953.75;;;-144.00;49.06
12791;BME280;6459;42.678;23.310;2022-08-01T00:05:14;53973.66;;;-144.00;49.08
12791;BME280;6459;42.678;23.310;2022-08-01T00:07:45;53981.63;;;-144.00;49.05
12791;BME280;6459;42.678;23.310;2022-08-01T00:10:20;53971.66;;;-144.00;48.81
12791;BME280;6459;42.678;23.310;2022-08-01T00:12:48;53967.69;;;-144.00;48.49
12791;BME280;6459;42.678;23.310;2022-08-01T00:15:26;53971.66;;;-144.00;48.28
12791;BME280;6459;42.678;23.310;2022-08-01T00:18:02;53963.69;;;-144.00;47.78
12791;BME280;6459;42.678;23.310;2022-08-01T00:20:43;53943.78;;;-144.00;47.88
12791;BME280;6459;42.678;23.310;2022-08-01T00:23:14;53943.78;;;-144.00;47.72
12791;BME280;6459;42.678;23.310;2022-08-01T00:25:52;53969.69;;;-144.00;47.73
12791;BME280;6459;42.678;23.310;2022-08-01T00:28:20;53957.72;;;-144.00;47.85
12791;BME280;6459;42.678;23.310;2022-08-01T00:30:53;53949.75;;;-144.00;47.61
12791;BME280;6459;42.678;23.310;2022-08-01T00:33:46;53973.66;;;-144.00;47.98
12791;BME280;6459;42.678;23.310;2022-08-01T00:36:16;53959.72;;;-144.00;48.39
12791;BME280;6459;42.678;23.310;2022-08-01T00:38:44;53971.66;;;-144.00;49.06
12791;BME280;6459;42.678;23.310;2022-08-01T00:41:12;53993.59;;;-144.00;48.94
12791;BME280;6459;42.678;23.310;2022-08-01T00:43:41;53977.66;;;-144.00;49.24
12791;BME280;6459;42.678;23.310;2022-08-01T00:46:11;53989.59;;;-144.00;50.23
12791;BME280;6459;42.678;23.310;2022-08-01T00:48:42;53965.69;;;-144.00;50.89
12791;BME280;6459;42.678;23.310;2022-08-01T00:51:12;53997.56;;;-144.00;51.43
12791;BME280;6459;42.678;23.310;2022-08-01T00:53:57;53963.69;;;-144.00;51.92
12791;BME280;6459;42.678;23.310;2022-08-01T00:56:34;54035.41;;;-144.00;52.64
12791;BME280;6459;42.678;23.310;2022-08-01T00:59:03;53969.69;;;-144.00;52.54
12791;BME280;6459;42.678;23.310;2022-08-01T01:01:32;54013.50;;;-144.00;52.98
12791;BME280;6459;42.678;23.310;2022-08-01T01:04:08;54021.47;;;-144.00;53.08
12791;BME280;6459;42.678;23.310;2022-08-01T01:06:59;53997.56;;;-144.00;53.18
12791;BME280;6459;42.678;23.310;2022-08-01T01:13:06;54017.50;;;-144.00;53.90
12791;BME280;6459;42.678;23.310;2022-08-01T01:15:45;54051.34;;;-144.00;54.07
12791;BME280;6459;42.678;23.310;2022-08-01T01:18:19;54027.44;;;-144.00;54.14
12791;BME280;6459;42.678;23.310;2022-08-01T01:20:53;54037.41;;;-144.00;54.07
12791;BME280;6459;42.678;23.310;2022-08-01T01:23:55;54023.47;;;-144.00;53.86
12791;BME280;6459;42.678;23.310;2022-08-01T01:26:40;54033.44;;;-144.00;53.53
12791;BME280;6459;42.678;23.310;2022-08-01T01:29:25;54009.53;;;-144.00;52.81
12791;BME280;6459;42.678;23.310;2022-08-01T01:31:59;54039.41;;;-144.00;52.62
12791;BME280;6459;42.678;23.310;2022-08-01T01:34:42;54041.41;;;-144.00;52.42
12791;BME280;6459;42.678;23.310;2022-08-01T01:37:16;54041.41;;;-144.00;52.26
12791;BME280;6459;42.678;23.310;2022-08-01T01:39:51;54041.41;;;-144.00;52.18
12791;BME280;6459;42.678;23.310;2022-08-01T01:42:25;54047.38;;;-144.00;51.11
12791;BME280;6459;42.678;23.310;2022-08-01T01:44:58;54023.47;;;-144.00;50.64
12791;BME280;6459;42.678;23.310;2022-08-01T01:47:28;54077.25;;;-144.00;50.34
12791;BME280;6459;42.678;23.310;2022-08-01T01:49:58;53995.56;;;-144.00;50.08
12791;BME280;6459;42.678;23.310;2022-08-01T01:52:29;54045.38;;;-144.00;48.64
12791;BME280;6459;42.678;23.310;2022-08-01T01:55:01;54001.56;;;-144.00;48.10
12791;BME280;6459;42.678;23.310;2022-08-01T01:57:37;54025.47;;;-144.00;47.59
12791;BME280;6459;42.678;23.310;2022-08-01T02:00:10;54023.47;;;-144.00;47.28
12791;BME280;6459;42.678;23.310;2022-08-01T02:02:39;54019.47;;;-144.00;47.18
12791;BME280;6459;42.678;23.310;2022-08-01T02:05:10;54029.44;;;-144.00;46.46
12791;BME280;6459;42.678;23.310;2022-08-01T02:07:40;53989.59;;;-144.00;45.77
12791;BME280;6459;42.678;23.310;2022-08-01T02:10:10;54025.47;;;-144.00;45.59
12791;BME280;6459;42.678;23.310;2022-08-01T02:12:41;53989.59;;;-144.00;45.87
12791;BME280;6459;42.678;23.310;2022-08-01T02:15:27;54027.44;;;-144.00;46.02
12791;BME280;6459;42.678;23.310;2022-08-01T02:17:57;54031.44;;;-144.00;45.30
12791;BME280;6459;42.678;23.310;2022-08-01T02:23:42;54001.56;;;-144.00;44.93
12791;BME280;6459;42.678;23.310;2022-08-01T02:26:16;54009.53;;;-144.00;44.45
12791;BME280;6459;42.678;23.310;2022-08-01T02:28:49;53993.59;;;-144.00;43.83
12791;BME280;6459;42.678;23.310;2022-08-01T02:31:21;54005.53;;;-144.00;44.05
12791;BME280;6459;42.678;23.310;2022-08-01T02:33:54;54007.53;;;-144.00;43.98
12791;BME280;6459;42.678;23.310;2022-08-01T02:36:26;54011.50;;;-144.00;43.93
12791;BME280;6459;42.678;23.310;2022-08-01T02:39:00;54047.38;;;-144.00;43.78
12791;BME280;6459;42.678;23.310;2022-08-01T02:41:31;54001.56;;;-144.00;43.85
12791;BME280;6459;42.678;23.310;2022-08-01T02:44:03;54015.50;;;-144.00;44.16
12791;BME280;6459;42.678;23.310;2022-08-01T02:46:37;53969.69;;;-144.00;44.13
12791;BME280;6459;42.678;23.310;2022-08-01T02:49:07;53997.56;;;-144.00;44.19
12791;BME280;6459;42.678;23.310;2022-08-01T02:51:39;54017.50;;;-144.00;44.16
12791;BME280;6459;42.678;23.310;2022-08-01T02:54:09;54001.56;;;-144.00;43.89
12791;BME280;6459;42.678;23.310;2022-08-01T02:56:39;54005.53;;;-144.00;44.32
12791;BME280;6459;42.678;23.310;2022-08-01T02:59:12;54021.47;;;-144.00;44.76
12791;BME280;6459;42.678;23.310;2022-08-01T03:01:55;53985.63;;;-144.00;45.10
12791;BME280;6459;42.678;23.310;2022-08-01T03:04:27;54033.44;;;-144.00;45.55
12791;BME280;6459;42.678;23.310;2022-08-01T03:10:39;53985.63;;;-144.00;47.09
12791;BME280;6459;42.678;23.310;2022-08-01T03:13:09;53977.66;;;-144.00;47.70
12791;BME280;6459;42.678;23.310;2022-08-01T03:15:39;54021.47;;;-144.00;47.96
12791;BME280;6459;42.678;23.310;2022-08-01T03:18:11;54005.53;;;-144.00;48.54
12791;BME280;6459;42.678;23.310;2022-08-01T03:20:42;54001.56;;;-144.00;48.81
12791;BME280;6459;42.678;23.310;2022-08-01T03:23:11;54017.50;;;-144.00;49.15
12791;BME280;6459;42.678;23.310;2022-08-01T03:25:41;54033.44;;;-144.00;49.25
12791;BME280;6459;42.678;23.310;2022-08-01T03:28:13;53999.56;;;-144.00;49.63
12791;BME280;6459;42.678;23.310;2022-08-01T03:30:42;53991.59;;;-144.00;49.78
12791;BME280;6459;42.678;23.310;2022-08-01T03:37:01;54003.53;;;-144.00;50.30
12791;BME280;6459;42.678;23.310;2022-08-01T03:39:34;54019.47;;;-144.00;50.42
12791;BME280;6459;42.678;23.310;2022-08-01T03:42:08;54005.53;;;-144.00;50.81
12791;BME280;6459;42.678;23.310;2022-08-01T03:44:39;54027.44;;;-144.00;51.19
12791;BME280;6459;42.678;23.310;2022-08-01T03:47:09;54033.44;;;-144.00;51.64
12791;BME280;6459;42.678;23.310;2022-08-01T03:49:42;54067.31;;;-144.00;52.20
12791;BME280;6459;42.678;23.310;2022-08-01T03:52:12;53997.56;;;-144.00;52.56
12791;BME280;6459;42.678;23.310;2022-08-01T03:54:49;54017.50;;;-144.00;52.82
12791;BME280;6459;42.678;23.310;2022-08-01T03:57:19;54013.50;;;-144.00;52.59
12791;BME280;6459;42.678;23.310;2022-08-01T04:00:04;54041.41;;;-144.00;52.65
12791;BME280;6459;42.678;23.310;2022-08-01T04:02:36;54031.44;;;-144.00;52.39
12791;BME280;6459;42.678;23.310;2022-08-01T04:05:06;54023.47;;;-144.00;51.23
12791;BME280;6459;42.678;23.310;2022-08-01T04:07:35;54051.34;;;-144.00;51.09
12791;BME280;6459;42.678;23.310;2022-08-01T04:10:06;53965.69;;;-144.00;51.04
12791;BME280;6459;42.678;23.310;2022-08-01T04:12:34;53989.59;;;-144.00;50.89
12791;BME280;6459;42.678;23.310;2022-08-01T04:15:04;53993.59;;;-144.00;50.90
12791;BME280;6459;42.678;23.310;2022-08-01T04:17:32;53995.56;;;-144.00;50.81
12791;BME280;6459;42.678;23.310;2022-08-01T04:20:00;54005.53;;;-144.00;50.81
12791;BME280;6459;42.678;23.310;2022-08-01T04:22:28;54027.44;;;-144.00;50.95
12791;BME280;6459;42.678;23.310;2022-08-01T04:25:09;54017.50;;;-144.00;51.30
12791;BME280;6459;42.678;23.310;2022-08-01T04:27:41;53997.56;;;-144.00;51.23
12791;BME280;6459;42.678;23.310;2022-08-01T04:30:18;53997.56;;;-144.00;50.30
12791;BME280;6459;42.678;23.310;2022-08-01T04:32:49;54013.50;;;-144.00;50.19
12791;BME280;6459;42.678;23.310;2022-08-01T04:35:19;54003.53;;;-144.00;50.21
12791;BME280;6459;42.678;23.310;2022-08-01T04:38:09;53993.59;;;-144.00;50.42
12791;BME280;6459;42.678;23.310;2022-08-01T04:40:41;53991.59;;;-144.00;50.15
12791;BME280;6459;42.678;23.310;2022-08-01T04:43:09;54007.53;;;-144.00;50.33
12791;BME280;6459;42.678;23.310;2022-08-01T04:45:40;53989.59;;;-144.00;50.63
12791;BME280;6459;42.678;23.310;2022-08-01T04:48:13;53983.63;;;-144.00;50.44
12791;BME280;6459;42.678;23.310;2022-08-01T04:50:43;54009.53;;;-144.00;50.64
12791;BME280;6459;42.678;23.310;2022-08-01T04:53:13;53939.78;;;-144.00;50.68
12791;BME280;6459;42.678;23.310;2022-08-01T04:55:46;53929.84;;;-144.00;49.88
12791;BME280;6459;42.678;23.310;2022-08-01T04:58:15;53878.03;;;-144.00;46.98
12791;BME280;6459;42.678;23.310;2022-08-01T05:00:44;53826.25;;;-144.00;43.78
12791;BME280;6459;42.678;23.310;2022-08-01T05:03:15;53752.53;;;-144.00;40.65
12791;BME280;6459;42.678;23.310;2022-08-01T05:05:43;53704.72;;;-144.00;38.63
12791;BME280;6459;42.678;23.310;2022-08-01T05:08:12;53615.06;;;-144.00;37.20
12791;BME280;6459;42.678;23.310;2022-08-01T05:10:40;53613.09;;;-144.00;36.63
12791;BME280;6459;42.678;23.310;2022-08-01T05:13:10;53577.22;;;-144.00;35.65
12791;BME280;6459;42.678;23.310;2022-08-01T05:15:38;53543.38;;;-144.00;34.33
12791;BME280;6459;42.678;23.310;2022-08-01T05:18:07;53525.44;;;-144.00;34.07
12791;BME280;6459;42.678;23.310;2022-08-01T05:20:54;53509.50;;;-144.00;32.87
12791;BME280;6459;42.678;23.310;2022-08-01T05:23:22;53479.63;;;-144.00;32.29
12791;BME280;6459;42.678;23.310;2022-08-01T05:26:08;53427.84;;;-144.00;31.65
12791;BME280;6459;42.678;23.310;2022-08-01T05:28:39;53415.88;;;-144.00;31.18
12791;BME280;6459;42.678;23.310;2022-08-01T05:31:07;53455.72;;;-144.00;30.75
12791;BME280;6459;42.678;23.310;2022-08-01T05:33:35;53471.66;;;-144.00;30.92
12791;BME280;6459;42.678;23.310;2022-08-01T05:36:04;53487.59;;;-144.00;31.13
12791;BME280;6459;42.678;23.310;2022-08-01T05:38:35;53577.22;;;-144.00;31.40
12791;BME280;6459;42.678;23.310;2022-08-01T05:41:13;53627.03;;;-144.00;33.44
12791;BME280;6459;42.678;23.310;2022-08-01T05:43:43;53684.81;;;-144.00;34.93
12791;BME280;6459;42.678;23.310;2022-08-01T05:46:11;53704.72;;;-144.00;35.65
12791;BME280;6459;42.678;23.310;2022-08-01T05:48:39;53754.53;;;-144.00;36.60
12791;BME280;6459;42.678;23.310;2022-08-01T05:51:07;53700.75;;;-144.00;37.99
12791;BME280;6459;42.678;23.310;2022-08-01T05:53:35;53822.25;;;-144.00;37.50
12791;BME280;6459;42.678;23.310;2022-08-01T05:56:04;53832.22;;;-144.00;38.75
12791;BME280;6459;42.678;23.310;2022-08-01T05:58:35;53826.25;;;-144.00;39.18
12791;BME280;6459;42.678;23.310;2022-08-01T06:01:05;53802.34;;;-144.00;38.96
12791;BME280;6459;42.678;23.310;2022-08-01T06:03:33;53860.09;;;-144.00;38.63
12791;BME280;6459;42.678;23.310;2022-08-01T06:06:03;53838.19;;;-144.00;38.73
12791;BME280;6459;42.678;23.310;2022-08-01T06:08:31;53882.03;;;-144.00;37.71
12791;BME280;6459;42.678;23.310;2022-08-01T06:10:59;53901.94;;;-144.00;37.80
12791;BME280;6459;42.678;23.310;2022-08-01T06:13:37;53834.22;;;-144.00;38.35
12791;BME280;6459;42.678;23.310;2022-08-01T06:16:16;53870.06;;;-144.00;38.58
12791;BME280;6459;42.678;23.310;2022-08-01T06:18:44;53852.13;;;-144.00;38.74
12791;BME280;6459;42.678;23.310;2022-08-01T06:21:13;53872.06;;;-144.00;38.30
12791;BME280;6459;42.678;23.310;2022-08-01T06:23:41;53864.09;;;-144.00;38.62
12791;BME280;6459;42.678;23.310;2022-08-01T06:26:10;53828.22;;;-144.00;38.55
12791;BME280;6459;42.678;23.310;2022-08-01T06:28:38;53868.06;;;-144.00;38.43
12791;BME280;6459;42.678;23.310;2022-08-01T06:31:08;53888.00;;;-144.00;38.56
12791;BME280;6459;42.678;23.310;2022-08-01T06:33:39;53838.19;;;-144.00;38.25
12791;BME280;6459;42.678;23.310;2022-08-01T06:36:08;53880.03;;;-144.00;38.32
12791;BME280;6459;42.678;23.310;2022-08-01T06:38:40;53874.06;;;-144.00;38.58
12791;BME280;6459;42.678;23.310;2022-08-01T06:41:09;53844.16;;;-144.00;38.37
12791;BME280;6459;42.678;23.310;2022-08-01T06:43:37;53893.97;;;-144.00;38.49
12791;BME280;6459;42.678;23.310;2022-08-01T06:46:06;53842.19;;;-144.00;38.77
12791;BME280;6459;42.678;23.310;2022-08-01T06:48:34;53882.03;;;-144.00;39.08
12791;BME280;6459;42.678;23.310;2022-08-01T06:51:07;53842.19;;;-144.00;38.63
12791;BME280;6459;42.678;23.310;2022-08-01T06:53:36;53864.09;;;-144.00;39.49
12791;BME280;6459;42.678;23.310;2022-08-01T06:56:06;53872.06;;;-144.00;39.03
12791;BME280;6459;42.678;23.310;2022-08-01T06:58:47;53872.06;;;-144.00;39.18
12791;BME280;6459;42.678;23.310;2022-08-01T07:01:16;53868.06;;;-144.00;38.90
12791;BME280;6459;42.678;23.310;2022-08-01T07:03:45;53862.09;;;-144.00;39.13
12791;BME280;6459;42.678;23.310;2022-08-01T07:06:23;53862.09;;;-144.00;39.43
12791;BME280;6459;42.678;23.310;2022-08-01T07:08:51;53866.09;;;-144.00;39.58
12791;BME280;6459;42.678;23.310;2022-08-01T07:11:21;53856.13;;;-144.00;39.35
12791;BME280;6459;42.678;23.310;2022-08-01T07:13:50;53864.09;;;-144.00;39.41
12791;BME280;6459;42.678;23.310;2022-08-01T07:16:18;53822.25;;;-144.00;39.68
12791;BME280;6459;42.678;23.310;2022-08-01T07:18:46;53854.13;;;-144.00;39.59
12791;BME280;6459;42.678;23.310;2022-08-01T07:21:15;53858.13;;;-144.00;39.81
12791;BME280;6459;42.678;23.310;2022-08-01T07:24:05;53842.19;;;-144.00;39.92
12791;BME280;6459;42.678;23.310;2022-08-01T07:26:40;53858.13;;;-144.00;39.30
12791;BME280;6459;42.678;23.310;2022-08-01T07:29:21;53876.03;;;-144.00;39.66
12791;BME280;6459;42.678;23.310;2022-08-01T07:31:49;53846.16;;;-144.00;39.67
12791;BME280;6459;42.678;23.310;2022-08-01T07:34:20;53816.28;;;-144.00;39.06
12791;BME280;6459;42.678;23.310;2022-08-01T07:36:48;53834.22;;;-144.00;39.35
12791;BME280;6459;42.678;23.310;2022-08-01T07:39:18;53872.06;;;-144.00;39.11
12791;BME280;6459;42.678;23.310;2022-08-01T07:41:46;53842.19;;;-144.00;39.15
12791;BME280;6459;42.678;23.310;2022-08-01T07:44:33;53846.16;;;-144.00;38.98
12791;BME280;6459;42.678;23.310;2022-08-01T07:47:01;53854.13;;;-144.00;38.45
12791;BME280;6459;42.678;23.310;2022-08-01T07:49:30;53846.16;;;-144.00;38.42
12791;BME280;6459;42.678;23.310;2022-08-01T07:52:06;53834.22;;;-144.00;38.53
12791;BME280;6459;42.678;23.310;2022-08-01T07:54:36;53800.34;;;-144.00;39.22
12791;BME280;6459;42.678;23.310;2022-08-01T07:57:04;53856.13;;;-144.00;39.05
12791;BME280;6459;42.678;23.310;2022-08-01T07:59:33;53846.16;;;-144.00;39.55
12791;BME280;6459;42.678;23.310;2022-08-01T08:02:09;53830.22;;;-144.00;39.08
12791;BME280;6459;42.678;23.310;2022-08-01T08:04:37;53842.19;;;-144.00;38.75
12791;BME280;6459;42.678;23.310;2022-08-01T08:07:06;53828.22;;;-144.00;38.95
12791;BME280;6459;42.678;23.310;2022-08-01T08:09:39;53854.13;;;-144.00;39.00
12791;BME280;6459;42.678;23.310;2022-08-01T08:12:08;53838.19;;;-144.00;38.65
12791;BME280;6459;42.678;23.310;2022-08-01T08:14:36;53840.19;;;-144.00;38.94
12791;BME280;6459;42.678;23.310;2022-08-01T08:17:05;53838.19;;;-144.00;38.58
12791;BME280;6459;42.678;23.310;2022-08-01T08:19:33;53844.16;;;-144.00;38.47
12791;BME280;6459;42.678;23.310;2022-08-01T08:22:05;53834.22;;;-144.00;38.02
12791;BME280;6459;42.678;23.310;2022-08-01T08:24:34;53842.19;;;-144.00;38.50
12791;BME280;6459;42.678;23.310;2022-08-01T08:27:15;53856.13;;;-144.00;38.28
12791;BME280;6459;42.678;23.310;2022-08-01T08:29:44;53822.25;;;-144.00;38.77
12791;BME280;6459;42.678;23.310;2022-08-01T08:32:13;53822.25;;;-144.00;38.81
12791;BME280;6459;42.678;23.310;2022-08-01T08:34:41;53818.28;;;-144.00;38.43
12791;BME280;6459;42.678;23.310;2022-08-01T08:37:10;53826.25;;;-144.00;38.42
12791;BME280;6459;42.678;23.310;2022-08-01T08:39:39;53806.31;;;-144.00;38.18
12791;BME280;6459;42.678;23.310;2022-08-01T08:42:09;53842.19;;;-144.00;38.38
12791;BME280;6459;42.678;23.310;2022-08-01T08:44:42;53822.25;;;-144.00;38.03
12791;BME280;6459;42.678;23.310;2022-08-01T08:47:14;53838.19;;;-144.00;37.93
12791;BME280;6459;42.678;23.310;2022-08-01T08:49:46;53810.31;;;-144.00;36.83
12791;BME280;6459;42.678;23.310;2022-08-01T08:52:16;53786.41;;;-144.00;36.88
12791;BME280;6459;42.678;23.310;2022-08-01T08:54:46;53802.34;;;-144.00;37.15
12791;BME280;6459;42.678;23.310;2022-08-01T08:57:15;53780.41;;;-144.00;36.60
12791;BME280;6459;42.678;23.310;2022-08-01T08:59:45;53800.34;;;-144.00;36.88
12791;BME280;6459;42.678;23.310;2022-08-01T09:02:13;53822.25;;;-144.00;36.86
12791;BME280;6459;42.678;23.310;2022-08-01T09:04:42;53826.25;;;-144.00;37.08
12791;BME280;6459;42.678;23.310;2022-08-01T09:07:10;53760.50;;;-144.00;37.03
12791;BME280;6459;42.678;23.310;2022-08-01T09:09:40;53796.34;;;-144.00;36.49
12791;BME280;6459;42.678;23.310;2022-08-01T09:12:09;53820.25;;;-144.00;36.10
12791;BME280;6459;42.678;23.310;2022-08-01T09:14:46;53784.41;;;-144.00;35.87
12791;BME280;6459;42.678;23.310;2022-08-01T09:17:14;53800.34;;;-144.00;35.67
12791;BME280;6459;42.678;23.310;2022-08-01T09:19:44;53774.44;;;-144.00;35.84
12791;BME280;6459;42.678;23.310;2022-08-01T09:22:15;53806.31;;;-144.00;36.13
12791;BME280;6459;42.678;23.310;2022-08-01T09:24:57;53826.25;;;-144.00;34.89
12791;BME280;6459;42.678;23.310;2022-08-01T09:27:26;53788.38;;;-144.00;34.98
12791;BME280;6459;42.678;23.310;2022-08-01T09:30:07;53810.31;;;-144.00;35.69
12791;BME280;6459;42.678;23.310;2022-08-01T09:36:26;53774.44;;;-144.00;35.75
12791;BME280;6459;42.678;23.310;2022-08-01T09:39:11;53806.31;;;-144.00;35.60
12791;BME280;6459;42.678;23.310;2022-08-01T09:41:40;53806.31;;;-144.00;35.28
12791;BME280;6459;42.678;23.310;2022-08-01T09:44:18;53792.38;;;-144.00;35.73
12791;BME280;6459;42.678;23.310;2022-08-01T09:47:10;53748.53;;;-144.00;36.43
12791;BME280;6459;42.678;23.310;2022-08-01T09:49:41;53780.41;;;-144.00;36.89
12791;BME280;6459;42.678;23.310;2022-08-01T09:52:19;53782.41;;;-144.00;36.23
12791;BME280;6459;42.678;23.310;2022-08-01T09:58:48;53768.47;;;-144.00;37.06
12791;BME280;6459;42.678;23.310;2022-08-01T10:01:24;53774.44;;;-144.00;36.05
12791;BME280;6459;42.678;23.310;2022-08-01T10:04:09;53742.56;;;-144.00;35.39
12791;BME280;6459;42.678;23.310;2022-08-01T10:06:38;53782.41;;;-144.00;35.48
12791;BME280;6459;42.678;23.310;2022-08-01T10:09:08;53786.41;;;-144.00;35.82
12791;BME280;6459;42.678;23.310;2022-08-01T10:11:37;53782.41;;;-144.00;35.78
12791;BME280;6459;42.678;23.310;2022-08-01T10:14:06;53768.47;;;-144.00;35.26
12791;BME280;6459;42.678;23.310;2022-08-01T10:16:36;53746.56;;;-144.00;34.82
12791;BME280;6459;42.678;23.310;2022-08-01T10:19:07;53762.50;;;-144.00;34.50
12791;BME280;6459;42.678;23.310;2022-08-01T10:21:36;53760.50;;;-144.00;34.80
12791;BME280;6459;42.678;23.310;2022-08-01T10:24:26;53782.41;;;-144.00;34.89
12791;BME280;6459;42.678;23.310;2022-08-01T10:26:57;53742.56;;;-144.00;35.12
12791;BME280;6459;42.678;23.310;2022-08-01T10:29:37;53716.69;;;-144.00;35.41
12791;BME280;6459;42.678;23.310;2022-08-01T10:32:46;53776.44;;;-144.00;36.04
12791;BME280;6459;42.678;23.310;2022-08-01T10:35:20;53786.41;;;-144.00;36.10
12791;BME280;6459;42.678;23.310;2022-08-01T10:38:14;53720.66;;;-144.00;36.33
12791;BME280;6459;42.678;23.310;2022-08-01T10:40:43;53762.50;;;-144.00;36.39
12791;BME280;6459;42.678;23.310;2022-08-01T10:43:12;53758.50;;;-144.00;35.86
12791;BME280;6459;42.678;23.310;2022-08-01T10:45:49;53750.53;;;-144.00;35.91
12791;BME280;6459;42.678;23.310;2022-08-01T10:48:20;53740.56;;;-144.00;35.62
12791;BME280;6459;42.678;23.310;2022-08-01T10:50:55;53734.59;;;-144.00;35.13
12791;BME280;6459;42.678;23.310;2022-08-01T10:53:26;53762.50;;;-144.00;35.11
12791;BME280;6459;42.678;23.310;2022-08-01T10:56:08;53766.47;;;-144.00;35.30
12791;BME280;6459;42.678;23.310;2022-08-01T10:58:42;53732.63;;;-144.00;35.59
12791;BME280;6459;42.678;23.310;2022-08-01T11:01:20;53752.53;;;-144.00;35.72
12791;BME280;6459;42.678;23.310;2022-08-01T11:04:04;53766.47;;;-144.00;35.60
12791;BME280;6459;42.678;23.310;2022-08-01T11:06:51;53750.53;;;-144.00;35.78
12791;BME280;6459;42.678;23.310;2022-08-01T11:09:24;53766.47;;;-144.00;35.81
12791;BME280;6459;42.678;23.310;2022-08-01T11:12:04;53754.53;;;-144.00;35.65
12791;BME280;6459;42.678;23.310;2022-08-01T11:15:17;53716.69;;;-144.00;35.31
12791;BME280;6459;42.678;23.310;2022-08-01T11:18:00;53734.59;;;-144.00;35.33
12791;BME280;6459;42.678;23.310;2022-08-01T11:20:32;53758.50;;;-144.00;35.55
12791;BME280;6459;42.678;23.310;2022-08-01T11:23:18;53742.56;;;-144.00;35.58
12791;BME280;6459;42.678;23.310;2022-08-01T11:26:09;53754.53;;;-144.00;35.94
12791;BME280;6459;42.678;23.310;2022-08-01T11:28:38;53728.63;;;-144.00;36.03
12791;BME280;6459;42.678;23.310;2022-08-01T11:31:29;53752.53;;;-144.00;35.76
12791;BME280;6459;42.678;23.310;2022-08-01T11:34:03;53776.44;;;-144.00;35.71
12791;BME280;6459;42.678;23.310;2022-08-01T11:36:32;53738.59;;;-144.00;36.08
12791;BME280;6459;42.678;23.310;2022-08-01T11:39:24;53734.59;;;-144.00;35.66
12791;BME280;6459;42.678;23.310;2022-08-01T11:41:52;53712.69;;;-144.00;35.50
12791;BME280;6459;42.678;23.310;2022-08-01T11:44:23;53742.56;;;-144.00;35.59
12791;BME280;6459;42.678;23.310;2022-08-01T11:47:04;53730.63;;;-144.00;35.93
12791;BME280;6459;42.678;23.310;2022-08-01T11:49:50;53774.44;;;-144.00;35.63
12791;BME280;6459;42.678;23.310;2022-08-01T11:52:28;53738.59;;;-144.00;35.92
12791;BME280;6459;42.678;23.310;2022-08-01T11:55:08;53730.63;;;-144.00;35.38
12791;BME280;6459;42.678;23.310;2022-08-01T11:57:42;53740.56;;;-144.00;35.77
12791;BME280;6459;42.678;23.310;2022-08-01T12:00:15;53698.75;;;-144.00;35.39
12791;BME280;6459;42.678;23.310;2022-08-01T12:02:45;53726.63;;;-144.00;35.24
12791;BME280;6459;42.678;23.310;2022-08-01T12:05:15;53696.75;;;-144.00;35.63
12791;BME280;6459;42.678;23.310;2022-08-01T12:07:52;53736.59;;;-144.00;35.65
12791;BME280;6459;42.678;23.310;2022-08-01T12:10:24;53714.69;;;-144.00;35.77
12791;BME280;6459;42.678;23.310;2022-08-01T12:12:55;53746.56;;;-144.00;35.79
12791;BME280;6459;42.678;23.310;2022-08-01T12:15:24;53734.59;;;-144.00;35.76
12791;BME280;6459;42.678;23.310;2022-08-01T12:17:58;53698.75;;;-144.00;35.88
12791;BME280;6459;42.678;23.310;2022-08-01T12:20:28;53702.72;;;-144.00;35.47
12791;BME280;6459;42.678;23.310;2022-08-01T12:22:59;53722.66;;;-144.00;35.76
12791;BME280;6459;42.678;23.310;2022-08-01T12:25:29;53724.66;;;-144.00;35.02
12791;BME280;6459;42.678;23.310;2022-08-01T12:28:00;53736.59;;;-144.00;35.07
12791;BME280;6459;42.678;23.310;2022-08-01T12:30:29;53730.63;;;-144.00;35.20
12791;BME280;6459;42.678;23.310;2022-08-01T12:33:02;53740.56;;;-144.00;35.46
12791;BME280;6459;42.678;23.310;2022-08-01T12:35:31;53720.66;;;-144.00;35.73
12791;BME280;6459;42.678;23.310;2022-08-01T12:38:01;53734.59;;;-144.00;35.50
12791;BME280;6459;42.678;23.310;2022-08-01T12:40:33;53710.69;;;-144.00;35.38
12791;BME280;6459;42.678;23.310;2022-08-01T12:43:03;53694.75;;;-144.00;34.97
12791;BME280;6459;42.678;23.310;2022-08-01T12:45:34;53698.75;;;-144.00;34.75
12791;BME280;6459;42.678;23.310;2022-08-01T12:48:07;53702.72;;;-144.00;35.15
12791;BME280;6459;42.678;23.310;2022-08-01T12:50:44;53724.66;;;-144.00;34.81
12791;BME280;6459;42.678;23.310;2022-08-01T12:53:13;53712.69;;;-144.00;34.75
12791;BME280;6459;42.678;23.310;2022-08-01T12:55:48;53722.66;;;-144.00;34.50
12791;BME280;6459;42.678;23.310;2022-08-01T12:58:31;53690.78;;;-144.00;34.94
12791;BME280;6459;42.678;23.310;2022-08-01T13:01:08;53704.72;;;-144.00;34.77
12791;BME280;6459;42.678;23.310;2022-08-01T13:03:38;53710.69;;;-144.00;35.06
12791;BME280;6459;42.678;23.310;2022-08-01T13:06:11;53722.66;;;-144.00;35.04
12791;BME280;6459;42.678;23.310;2022-08-01T13:08:42;53676.84;;;-144.00;35.06
12791;BME280;6459;42.678;23.310;2022-08-01T13:11:13;53710.69;;;-144.00;35.45
12791;BME280;6459;42.678;23.310;2022-08-01T13:13:45;53704.72;;;-144.00;35.32
12791;BME280;6459;42.678;23.310;2022-08-01T13:16:16;53662.88;;;-144.00;35.36
12791;BME280;6459;42.678;23.310;2022-08-01T13:19:04;53678.81;;;-144.00;34.94
12791;BME280;6459;42.678;23.310;2022-08-01T13:21:34;53678.81;;;-144.00;35.36
12791;BME280;6459;42.678;23.310;2022-08-01T13:24:23;53684.81;;;-144.00;35.13
12791;BME280;6459;42.678;23.310;2022-08-01T13:26:55;53664.88;;;-144.00;35.31
12791;BME280;6459;42.678;23.310;2022-08-01T13:29:30;53674.84;;;-144.00;35.20
12791;BME280;6459;42.678;23.310;2022-08-01T13:32:00;53688.78;;;-144.00;35.00